Time;durP1;ratioP1;P1;durP2;ratioP2;P2;SDS_P1;SDS_P2;PMS_P1;PMS_P2;Temp;Humidity;BMP_temperature;BMP_pressure;BME280_temperature;BME280_humidity;BME280_pressure;Samples;Min_cycle;Max_cycle;Signal;HPM_P1;HPM_P2
2022/06/03 00:00:09;;;;;;;1.95;1.05;;;15.70;86.40;;;;;;5052079;28;20066;-47
2022/06/03 00:03:00;;;;;;;2.15;1.20;;;15.70;86.20;;;;;;5049886;28;20021;-49
2022/06/03 00:05:48;;;;;;;1.20;1.10;;;15.70;86.90;;;;;;5051443;28;20546;-46
2022/06/03 00:08:16;;;;;;;1.73;1.63;;;15.70;86.70;;;;;;5034251;28;20080;-48
2022/06/03 00:11:13;;;;;;;1.17;1.10;;;15.70;86.60;;;;;;5034649;28;20082;-45
2022/06/03 00:13:53;;;;;;;3.35;1.60;;;15.80;86.40;;;;;;5051404;28;20028;-45
2022/06/03 00:16:37;;;;;;;4.10;1.20;;;15.70;86.40;;;;;;5051375;28;20040;-44
2022/06/03 00:19:38;;;;;;;1.55;1.20;;;15.70;86.60;;;;;;5037356;28;20052;-43
2022/06/03 00:22:12;;;;;;;1.42;1.33;;;15.60;86.70;;;;;;5031622;28;20408;-48
2022/06/03 00:25:02;;;;;;;1.92;1.50;;;15.60;86.90;;;;;;5031382;28;20025;-48
2022/06/03 00:27:53;;;;;;;1.38;1.27;;;15.60;87.00;;;;;;5034730;28;20032;-47
2022/06/03 00:30:47;;;;;;;2.45;1.20;;;15.50;87.30;;;;;;5035685;28;20104;-46
2022/06/03 00:33:49;;;;;;;1.55;1.33;;;15.50;87.40;;;;;;5036557;28;20074;-48
2022/06/03 00:36:17;;;;;;;1.92;1.20;;;15.60;87.40;;;;;;5034687;28;20040;-43
2022/06/03 00:39:10;;;;;;;3.35;1.40;;;15.60;87.20;;;;;;5035118;28;20100;-45
2022/06/03 00:42:02;;;;;;;1.75;1.15;;;15.60;87.40;;;;;;5035457;28;20548;-44
2022/06/03 00:45:08;;;;;;;3.70;1.45;;;15.50;87.60;;;;;;5035488;28;20555;-47
2022/06/03 00:47:50;;;;;;;2.80;1.20;;;15.50;87.60;;;;;;5045875;28;20039;-47
2022/06/03 00:50:18;;;;;;;1.65;1.30;;;15.40;87.60;;;;;;5055085;28;20503;-45
2022/06/03 00:53:12;;;;;;;1.45;1.35;;;15.40;87.90;;;;;;5054759;28;20028;-45
2022/06/03 00:55:56;;;;;;;2.45;1.33;;;15.40;87.70;;;;;;5054995;28;20025;-45
2022/06/03 00:58:38;;;;;;;1.45;1.35;;;15.40;87.70;;;;;;5054397;28;20029;-47
2022/06/03 01:01:03;;;;;;;1.80;1.70;;;15.40;87.80;;;;;;5034963;28;20398;-49
2022/06/03 01:03:56;;;;;;;1.15;1.10;;;15.40;87.80;;;;;;5034999;28;20041;-45
2022/06/03 01:06:39;;;;;;;1.52;1.42;;;15.30;87.70;;;;;;5033464;28;20354;-45
2022/06/03 01:09:27;;;;;;;2.47;1.30;;;15.30;87.80;;;;;;5034352;28;20027;-47
2022/06/03 01:12:03;;;;;;;2.00;1.20;;;15.30;87.90;;;;;;5034257;28;20045;-49
2022/06/03 01:14:31;;;;;;;;;;;15.30;88.00;;;;;;5045632;28;20025;-44
2022/06/03 01:17:00;;;;;;;1.23;1.13;;;15.30;87.70;;;;;;5054033;28;20291;-49
2022/06/03 01:19:44;;;;;;;1.25;1.15;;;15.30;87.80;;;;;;5054280;28;20025;-45
2022/06/03 01:22:39;;;;;;;2.45;1.10;;;15.30;87.80;;;;;;5052792;28;20542;-44
2022/06/03 01:25:24;;;;;;;1.50;1.15;;;15.30;88.10;;;;;;5052958;28;20025;-46
2022/06/03 01:28:20;;;;;;;1.77;1.20;;;15.30;88.00;;;;;;5052115;28;20029;-45
2022/06/03 01:31:01;;;;;;;2.25;1.45;;;15.30;88.20;;;;;;5052666;28;20025;-46
2022/06/03 01:33:56;;;;;;;2.80;1.23;;;15.30;88.30;;;;;;5054108;28;20062;-45
2022/06/03 01:36:59;;;;;;;2.08;1.55;;;15.30;88.90;;;;;;5052298;28;20032;-44
2022/06/03 01:39:53;;;;;;;1.20;1.00;;;15.30;88.10;;;;;;5053438;28;20028;-45
2022/06/03 01:42:40;;;;;;;1.20;1.20;;;15.40;88.30;;;;;;5053814;28;20025;-47
2022/06/03 01:45:09;;;;;;;1.08;1.08;;;15.30;88.40;;;;;;5053822;28;20033;-48
2022/06/03 01:48:02;;;;;;;1.45;1.35;;;15.40;88.40;;;;;;5053292;28;20416;-45
2022/06/03 01:50:52;;;;;;;2.03;1.15;;;15.40;88.50;;;;;;5053712;28;20401;-50
2022/06/03 01:53:42;;;;;;;1.38;1.35;;;15.40;88.70;;;;;;5012584;28;20026;-45
2022/06/03 01:56:16;;;;;;;1.45;1.17;;;15.40;88.40;;;;;;5013850;28;20018;-44
2022/06/03 01:58:58;;;;;;;1.67;1.58;;;15.40;88.40;;;;;;5013578;28;20092;-48
2022/06/03 02:02:11;;;;;;;2.83;1.30;;;15.40;88.50;;;;;;5012705;28;20612;-44
2022/06/03 02:04:50;;;;;;;1.88;1.40;;;15.50;88.70;;;;;;5036412;28;20032;-45
2022/06/03 02:07:41;;;;;;;1.35;1.35;;;15.40;88.60;;;;;;5053149;28;20025;-45
2022/06/03 02:10:34;;;;;;;1.40;1.30;;;15.50;88.80;;;;;;5053259;28;20104;-45
2022/06/03 02:13:29;;;;;;;1.95;1.55;;;15.50;89.00;;;;;;5053254;28;20060;-44
2022/06/03 02:16:30;;;;;;;1.20;1.20;;;15.40;89.10;;;;;;5051752;28;20040;-50
2022/06/03 02:19:08;;;;;;;4.40;1.52;;;15.40;89.20;;;;;;5044201;28;20307;-47
2022/06/03 02:21:56;;;;;;;1.52;1.20;;;15.40;89.20;;;;;;5033288;28;20033;-45
2022/06/03 02:24:59;;;;;;;1.70;1.27;;;15.30;89.40;;;;;;5033053;28;20449;-46
2022/06/03 02:27:45;;;;;;;1.98;1.73;;;15.30;89.70;;;;;;5032757;28;20021;-47
2022/06/03 02:30:26;;;;;;;1.50;1.08;;;15.30;89.90;;;;;;5034161;28;20036;-45
2022/06/03 02:33:18;;;;;;;1.20;1.20;;;15.20;90.10;;;;;;5052928;28;20195;-45
2022/06/03 02:36:11;;;;;;;3.70;1.30;;;15.20;90.20;;;;;;5052738;28;20021;-44
2022/06/03 02:39:00;;;;;;;1.40;1.27;;;15.20;90.30;;;;;;5052549;28;20116;-50
2022/06/03 02:41:56;;;;;;;6.05;1.35;;;15.20;90.40;;;;;;5052627;28;20369;-46
2022/06/03 02:44:51;;;;;;;1.10;1.10;;;15.10;90.40;;;;;;5052750;28;20033;-45
2022/06/03 02:47:38;;;;;;;1.48;1.38;;;15.10;90.50;;;;;;5032202;28;20034;-48
2022/06/03 02:50:44;;;;;;;1.13;1.10;;;15.10;90.70;;;;;;5031641;28;20504;-46
2022/06/03 02:53:22;;;;;;;;;;;15.10;90.60;;;;;;5011086;28;20541;-45
2022/06/03 02:56:14;;;;;;;1.60;1.50;;;15.00;90.70;;;;;;5029639;28;20268;-45
2022/06/03 02:59:00;;;;;;;1.48;1.38;;;15.00;90.80;;;;;;5046642;28;20037;-46
2022/06/03 03:01:52;;;;;;;1.58;1.48;;;15.00;90.80;;;;;;5052270;28;20452;-45
2022/06/03 03:04:58;;;;;;;1.50;1.40;;;15.00;90.90;;;;;;5051084;28;20413;-47
2022/06/03 03:07:42;;;;;;;1.33;1.30;;;14.90;90.90;;;;;;5044596;28;20030;-45
2022/06/03 03:10:15;;;;;;;2.20;1.42;;;14.90;91.00;;;;;;5035762;28;20037;-45
2022/06/03 03:13:14;;;;;;;10.63;1.50;;;14.90;91.00;;;;;;5032017;28;20033;-45
2022/06/03 03:16:10;;;;;;;3.90;1.50;;;14.90;91.10;;;;;;5032162;28;20087;-44
2022/06/03 03:19:13;;;;;;;1.38;1.38;;;14.90;91.20;;;;;;5031867;28;20017;-46
2022/06/03 03:21:54;;;;;;;1.42;1.30;;;14.90;91.20;;;;;;5032248;28;20064;-44
2022/06/03 03:25:02;;;;;;;1.90;1.48;;;14.90;91.30;;;;;;5032196;28;20029;-46
2022/06/03 03:27:33;;;;;;;1.50;1.40;;;14.80;91.40;;;;;;5031560;28;20028;-46
2022/06/03 03:30:19;;;;;;;1.50;1.40;;;14.80;91.50;;;;;;5032003;28;20389;-44
2022/06/03 03:33:10;;;;;;;1.33;1.17;;;14.80;91.50;;;;;;5031953;28;20025;-50
2022/06/03 03:35:52;;;;;;;2.78;1.27;;;14.80;91.50;;;;;;5035727;28;20021;-45
2022/06/03 03:38:52;;;;;;;1.40;1.40;;;14.80;91.60;;;;;;5051444;28;20032;-45
2022/06/03 03:41:54;;;;;;;2.25;1.33;;;14.80;91.50;;;;;;5046118;28;20024;-49
2022/06/03 03:44:20;;;;;;;2.88;1.50;;;14.80;91.60;;;;;;5031612;28;20040;-45
2022/06/03 03:47:06;;;;;;;1.20;1.20;;;14.80;91.60;;;;;;5031481;28;20029;-43
2022/06/03 03:49:50;;;;;;;1.38;1.30;;;14.80;91.80;;;;;;5031686;28;20592;-49
2022/06/03 03:52:57;;;;;;;2.05;1.50;;;14.80;91.80;;;;;;5035172;28;20060;-46
2022/06/03 03:55:38;;;;;;;3.38;1.90;;;14.80;91.90;;;;;;5011988;28;20558;-46
2022/06/03 03:58:03;;;;;;;1.58;1.48;;;14.80;92.00;;;;;;5031236;28;20032;-51
2022/06/03 04:01:09;;;;;;;4.53;1.50;;;14.80;92.10;;;;;;5050631;28;20029;-44
2022/06/03 04:03:53;;;;;;;1.55;1.45;;;14.80;92.20;;;;;;5040647;28;20021;-44
2022/06/03 04:06:43;;;;;;;1.48;1.20;;;14.80;92.40;;;;;;5032692;28;20025;-44
2022/06/03 04:09:30;;;;;;;1.20;1.10;;;14.80;92.20;;;;;;5033668;28;20025;-43
2022/06/03 04:12:25;;;;;;;1.77;1.45;;;14.80;92.20;;;;;;5022707;28;20031;-46
2022/06/03 04:15:30;;;;;;;4.45;1.52;;;14.80;92.30;;;;;;5035671;28;20479;-51
2022/06/03 04:18:32;;;;;;;2.95;1.58;;;14.80;92.30;;;;;;5030975;28;20029;-47
2022/06/03 04:21:43;;;;;;;2.92;1.30;;;14.90;92.30;;;;;;5035003;28;20033;-44
2022/06/03 04:24:39;;;;;;;3.72;1.40;;;15.00;92.10;;;;;;5034649;28;20396;-47
2022/06/03 04:27:16;;;;;;;1.48;1.48;;;15.10;92.00;;;;;;5031087;28;20025;-43
2022/06/03 04:30:13;;;;;;;3.80;1.42;;;15.10;92.00;;;;;;5031252;28;20095;-43
2022/06/03 04:32:57;;;;;;;2.78;1.30;;;15.10;92.00;;;;;;5031304;28;20045;-44
2022/06/03 04:35:45;;;;;;;1.73;1.63;;;15.30;91.80;;;;;;5031229;28;20160;-45
2022/06/03 04:38:22;;;;;;;1.13;1.13;;;15.40;91.70;;;;;;5031018;28;20071;-44
2022/06/03 04:40:57;;;;;;;1.35;1.25;;;15.60;91.50;;;;;;5034134;28;20033;-45
2022/06/03 04:43:37;;;;;;;1.60;1.50;;;15.60;91.10;;;;;;5038300;28;20100;-46
2022/06/03 04:46:24;;;;;;;1.25;1.25;;;15.80;90.90;;;;;;5033900;28;20291;-45
2022/06/03 04:49:23;;;;;;;1.30;1.20;;;15.80;90.60;;;;;;5030515;28;20058;-44
2022/06/03 04:52:10;;;;;;;1.15;1.15;;;16.10;90.40;;;;;;5026861;28;20104;-45
2022/06/03 04:55:12;;;;;;;1.67;1.33;;;16.40;90.00;;;;;;5034627;28;20513;-44
2022/06/03 04:58:09;;;;;;;1.92;1.25;;;16.70;88.70;;;;;;5030491;28;20036;-43
2022/06/03 05:01:09;;;;;;;9.48;1.58;;;17.00;87.90;;;;;;5030858;28;20105;-48
2022/06/03 05:04:03;;;;;;;1.33;1.30;;;17.50;85.70;;;;;;5030990;28;20030;-44
2022/06/03 05:07:09;;;;;;;1.33;1.08;;;17.60;85.70;;;;;;5031526;28;20529;-48
2022/06/03 05:10:13;;;;;;;1.30;1.20;;;17.70;84.70;;;;;;5029620;28;20116;-47
2022/06/03 05:13:07;;;;;;;5.65;1.27;;;17.70;84.70;;;;;;5031359;28;20033;-48
2022/06/03 05:15:48;;;;;;;3.28;1.20;;;17.90;84.40;;;;;;5034527;28;20025;-45
2022/06/03 05:18:40;;;;;;;1.20;1.10;;;17.80;84.50;;;;;;5034083;28;20032;-49
2022/06/03 05:21:47;;;;;;;3.20;1.15;;;17.60;85.00;;;;;;5035694;28;20021;-46
2022/06/03 05:24:31;;;;;;;1.67;1.20;;;17.10;86.60;;;;;;5046622;28;20549;-47
2022/06/03 05:27:30;;;;;;;3.40;1.38;;;17.10;87.00;;;;;;5034214;28;20029;-45
2022/06/03 05:30:29;;;;;;;1.08;1.08;;;16.90;87.50;;;;;;5035338;28;20500;-44
2022/06/03 05:33:14;;;;;;;3.78;1.70;;;17.00;87.30;;;;;;5036096;28;20044;-43
2022/06/03 05:35:55;;;;;;;12.00;1.30;;;17.00;87.70;;;;;;5035984;28;20100;-45
2022/06/03 05:38:53;;;;;;;4.35;1.58;;;16.90;88.10;;;;;;5040733;28;20029;-47
2022/06/03 05:45:03;;;;;;;4.22;1.35;;;16.80;88.50;;;;;;5044596;28;20044;-44
2022/06/03 05:47:47;;;;;;;2.97;1.75;;;17.00;88.30;;;;;;5064454;23;20045;-43
2022/06/03 05:50:24;;;;;;;6.13;1.60;;;17.00;88.20;;;;;;5035714;28;20096;-45
2022/06/03 05:52:58;;;;;;;6.72;1.35;;;17.20;87.80;;;;;;5042761;28;20113;-45
2022/06/03 05:56:02;;;;;;;2.38;1.48;;;17.40;87.10;;;;;;5037015;28;20026;-49
2022/06/03 05:58:41;;;;;;;2.45;1.10;;;17.60;86.60;;;;;;5004103;28;20034;-43
2022/06/03 06:01:27;;;;;;;1.50;1.38;;;17.70;85.80;;;;;;4996318;28;20037;-44
2022/06/03 06:04:18;;;;;;;5.63;1.33;;;18.00;85.20;;;;;;5013486;28;20102;-44
2022/06/03 06:06:59;;;;;;;2.35;1.35;;;18.20;83.70;;;;;;5013504;28;20081;-49
2022/06/03 06:09:31;;;;;;;4.18;1.38;;;18.40;83.80;;;;;;5013779;28;20029;-43
2022/06/03 06:12:24;;;;;;;1.58;0.93;;;18.50;83.50;;;;;;5013216;28;20058;-43
2022/06/03 06:15:09;;;;;;;2.13;1.40;;;18.60;82.80;;;;;;5013176;28;20032;-41
2022/06/03 06:17:47;;;;;;;;;;;18.90;82.70;;;;;;5002594;28;20042;-43
2022/06/03 06:20:42;;;;;;;1.65;1.33;;;18.80;82.20;;;;;;5013310;28;19995;-43
2022/06/03 06:23:39;;;;;;;1.35;1.20;;;18.60;82.70;;;;;;4982523;28;20042;-44
2022/06/03 06:26:29;;;;;;;2.65;1.38;;;18.70;82.50;;;;;;5010092;28;20038;-43
2022/06/03 06:29:01;;;;;;;3.92;1.10;;;18.50;82.40;;;;;;5013171;28;20021;-43
2022/06/03 06:32:13;;;;;;;1.42;1.17;;;18.60;82.30;;;;;;5012986;28;20033;-44
2022/06/03 06:34:58;;;;;;;2.88;1.27;;;19.30;81.50;;;;;;5013107;28;20029;-43
2022/06/03 06:37:40;;;;;;;3.03;1.63;;;19.90;79.50;;;;;;4995292;28;20050;-43
2022/06/03 06:40:34;;;;;;;6.70;1.30;;;20.50;77.50;;;;;;5012960;28;20425;-43
2022/06/03 06:43:12;;;;;;;1.38;1.30;;;21.30;76.30;;;;;;5012903;28;20416;-42
2022/06/03 06:45:41;;;;;;;7.63;1.20;;;22.20;73.50;;;;;;4995364;28;20030;-44
2022/06/03 06:48:14;;;;;;;3.90;0.93;;;22.40;72.10;;;;;;5012370;28;20069;-42
2022/06/03 06:51:14;;;;;;;2.28;1.27;;;22.30;72.70;;;;;;5012766;28;20087;-48
2022/06/03 06:53:51;;;;;;;3.17;0.90;;;22.00;72.40;;;;;;4959781;28;20043;-45
2022/06/03 06:56:32;;;;;;;1.10;1.10;;;21.50;73.60;;;;;;5013029;28;20026;-45
2022/06/03 06:59:06;;;;;;;1.95;1.85;;;21.40;74.50;;;;;;5012869;28;20038;-43
2022/06/03 07:01:41;;;;;;;12.68;3.13;;;21.30;74.30;;;;;;5012709;28;20076;-41
2022/06/03 07:04:14;;;;;;;2.38;1.38;;;21.20;74.40;;;;;;5012951;28;20466;-46
2022/06/03 07:06:47;;;;;;;1.10;1.10;;;21.10;74.30;;;;;;5013830;28;20405;-42
2022/06/03 07:09:23;;;;;;;3.03;1.10;;;21.30;74.00;;;;;;4995380;28;20026;-43
2022/06/03 07:11:54;;;;;;;3.53;1.10;;;21.60;73.20;;;;;;5022523;28;20026;-45
2022/06/03 07:14:29;;;;;;;3.08;1.35;;;21.90;72.70;;;;;;5011550;28;20029;-45
2022/06/03 07:20:09;;;;;;;6.65;1.30;;;21.70;73.00;;;;;;5013753;28;20029;-46
2022/06/03 07:22:56;;;;;;;3.65;1.30;;;21.80;73.50;;;;;;5013115;28;20034;-46
2022/06/03 07:25:22;;;;;;;10.27;1.85;;;21.70;72.00;;;;;;4995072;28;20030;-44
2022/06/03 07:28:02;;;;;;;3.50;1.33;;;21.60;73.40;;;;;;5024310;28;20048;-44
2022/06/03 07:30:30;;;;;;;2.83;1.00;;;21.60;73.60;;;;;;5032313;28;20124;-43
2022/06/03 07:33:01;;;;;;;5.18;1.50;;;21.90;73.00;;;;;;5032383;28;20411;-46
2022/06/03 07:35:40;;;;;;;3.72;1.35;;;22.20;71.60;;;;;;5014069;28;20029;-45
2022/06/03 07:38:21;;;;;;;12.70;1.70;;;22.40;71.80;;;;;;5031753;28;20021;-46
2022/06/03 07:41:10;;;;;;;1.40;1.40;;;22.70;71.70;;;;;;5032446;28;20030;-44
2022/06/03 07:43:53;;;;;;;2.10;1.30;;;23.30;70.10;;;;;;5031942;28;20068;-45
2022/06/03 07:46:26;;;;;;;3.05;1.00;;;24.00;68.70;;;;;;5031918;28;20029;-48
2022/06/03 07:48:52;;;;;;;7.35;1.38;;;24.70;67.20;;;;;;5032029;28;20412;-44
2022/06/03 07:51:25;;;;;;;1.73;1.27;;;24.60;66.80;;;;;;5031866;28;20037;-41
2022/06/03 07:54:13;;;;;;;2.92;1.23;;;25.20;65.90;;;;;;5031821;28;20076;-50
2022/06/03 07:56:40;;;;;;;1.92;1.35;;;26.00;64.30;;;;;;5031475;28;20024;-47
2022/06/03 07:59:17;;;;;;;7.00;1.20;;;26.10;64.20;;;;;;5031965;28;20067;-47
2022/06/03 08:01:55;;;;;;;5.85;1.13;;;26.20;64.20;;;;;;5032029;28;20068;-48
2022/06/03 08:04:30;;;;;;;2.65;1.23;;;26.10;64.00;;;;;;5032123;28;20079;-44
2022/06/03 08:12:31;;;;;;;3.95;1.23;;;25.50;64.40;;;;;;5031986;28;20027;-44
2022/06/03 08:14:57;;;;;;;1.02;1.02;;;25.20;64.90;;;;;;5032307;28;20033;-43
2022/06/03 08:17:25;;;;;;;1.83;1.30;;;24.80;66.10;;;;;;5031464;28;20534;-48
2022/06/03 08:19:52;;;;;;;1.52;1.20;;;25.00;66.60;;;;;;5032015;28;20521;-45
2022/06/03 08:22:22;;;;;;;7.18;2.05;;;25.30;67.00;;;;;;5031592;28;20025;-41
2022/06/03 08:24:54;;;;;;;12.73;7.13;;;25.00;65.90;;;;;;5031787;28;20026;-44
2022/06/03 08:27:31;;;;;;;18.40;12.55;;;24.80;67.10;;;;;;5031536;28;20038;-45
2022/06/03 08:30:08;;;;;;;7.68;6.60;;;24.70;66.70;;;;;;5031984;28;20037;-44
2022/06/03 08:32:39;;;;;;;3.88;1.40;;;24.80;67.00;;;;;;5031623;28;20033;-42
2022/06/03 08:35:20;;;;;;;3.42;1.20;;;24.00;67.50;;;;;;5031699;28;20499;-45
2022/06/03 08:37:51;;;;;;;2.28;1.40;;;23.40;69.70;;;;;;5013468;28;20060;-44
2022/06/03 08:40:33;;;;;;;2.13;1.38;;;23.60;70.00;;;;;;5031599;28;20017;-45
2022/06/03 08:43:12;;;;;;;2.80;1.30;;;23.70;68.60;;;;;;5031377;28;20025;-43
2022/06/03 08:46:04;;;;;;;4.75;1.73;;;24.00;69.10;;;;;;5031484;28;20024;-44
2022/06/03 08:48:35;;;;;;;4.40;1.50;;;23.90;68.70;;;;;;5034964;28;20033;-43
2022/06/03 08:51:06;;;;;;;3.55;1.40;;;24.10;68.80;;;;;;5035433;28;20029;-42
2022/06/03 08:53:41;;;;;;;1.83;1.70;;;24.20;68.90;;;;;;5035358;28;20029;-42
2022/06/03 08:56:17;;;;;;;4.47;1.50;;;24.30;68.60;;;;;;5035479;28;20017;-44
2022/06/03 08:58:55;;;;;;;4.70;1.23;;;24.70;67.60;;;;;;5035521;28;20480;-43
2022/06/03 09:01:55;;;;;;;4.63;1.35;;;24.90;67.70;;;;;;5035701;28;20067;-44
2022/06/03 09:04:20;;;;;;;2.40;1.27;;;25.20;73.30;;;;;;5035401;28;20029;-46
2022/06/03 09:07:10;;;;;;;3.58;1.60;;;25.30;67.10;;;;;;5035099;28;20021;-42
2022/06/03 09:09:52;;;;;;;4.88;1.98;;;25.50;67.30;;;;;;5035051;28;20485;-45
2022/06/03 09:12:33;;;;;;;12.38;9.50;;;25.80;67.00;;;;;;5034777;28;20037;-43
2022/06/03 09:15:11;;;;;;;11.95;2.05;;;25.60;66.20;;;;;;5034805;28;20022;-47
2022/06/03 09:17:48;;;;;;;9.25;4.80;;;25.10;67.30;;;;;;5034306;28;20108;-44
2022/06/03 09:20:29;;;;;;;2.47;1.10;;;25.30;67.70;;;;;;5034725;28;20568;-38
2022/06/03 09:23:05;;;;;;;1.75;1.40;;;25.20;68.00;;;;;;5034686;28;20040;-42
2022/06/03 09:25:31;;;;;;;1.40;1.30;;;25.20;67.90;;;;;;5033265;28;20033;-44
2022/06/03 09:28:00;;;;;;;2.15;1.10;;;25.20;67.50;;;;;;5032281;28;20558;-43
2022/06/03 09:30:31;;;;;;;2.97;1.48;;;25.10;68.00;;;;;;5033202;28;20230;-46
2022/06/03 09:32:59;;;;;;;5.20;1.17;;;25.10;68.10;;;;;;5034068;28;20033;-43
2022/06/03 09:35:27;;;;;;;3.05;1.63;;;25.10;68.80;;;;;;5035011;28;20541;-42
2022/06/03 09:37:58;;;;;;;2.55;1.23;;;25.40;68.60;;;;;;5034203;28;20111;-45
2022/06/03 09:40:28;;;;;;;3.78;1.60;;;25.60;68.30;;;;;;5034191;28;20036;-44
2022/06/03 09:43:03;;;;;;;5.00;1.52;;;25.40;67.70;;;;;;5034502;28;20017;-41
2022/06/03 09:45:29;;;;;;;1.48;1.38;;;25.20;68.20;;;;;;5034776;28;20037;-46
2022/06/03 09:47:55;;;;;;;3.58;1.50;;;25.10;68.30;;;;;;5034309;28;20120;-46
2022/06/03 09:50:23;;;;;;;2.20;1.38;;;24.90;69.30;;;;;;5034453;28;20079;-47
2022/06/03 09:52:57;;;;;;;4.53;1.50;;;24.60;69.70;;;;;;5034023;28;20029;-44
2022/06/03 09:55:30;;;;;;;4.30;1.70;;;24.60;69.90;;;;;;5027338;28;20022;-42
2022/06/03 09:57:58;;;;;;;2.40;1.25;;;24.80;70.90;;;;;;5031772;28;20489;-46
2022/06/03 10:00:34;;;;;;;2.60;1.65;;;24.90;70.10;;;;;;5026273;28;20059;-45
2022/06/03 10:03:00;;;;;;;6.82;1.65;;;25.00;69.40;;;;;;5013617;28;20125;-46
2022/06/03 10:05:25;;;;;;;12.95;5.05;;;24.80;70.10;;;;;;5013458;28;20097;-46
2022/06/03 10:07:58;;;;;;;56.30;40.90;;;24.90;70.60;;;;;;5017126;28;20029;-47
2022/06/03 10:13:09;;;;;;;3.07;1.43;;;25.20;70.30;;;;;;5014360;28;20093;-45
2022/06/03 10:15:38;;;;;;;2.50;1.20;;;25.20;69.50;;;;;;5017003;28;20676;-47
2022/06/03 10:18:20;;;;;;;7.38;2.67;;;25.30;69.70;;;;;;5013751;28;20026;-46
2022/06/03 10:20:47;;;;;;;1.50;1.40;;;25.10;70.40;;;;;;5014154;28;20490;-52
2022/06/03 10:23:13;;;;;;;1.88;1.30;;;25.10;70.00;;;;;;5014681;28;20480;-48
2022/06/03 10:25:44;;;;;;;4.38;2.35;;;24.90;70.90;;;;;;5013808;28;20424;-45
2022/06/03 10:28:12;;;;;;;3.05;1.52;;;25.00;71.70;;;;;;5013760;28;20309;-46
2022/06/03 10:30:41;;;;;;;3.22;1.33;;;25.00;71.40;;;;;;5013904;28;20084;-45
2022/06/03 10:33:18;;;;;;;5.15;1.52;;;25.20;70.80;;;;;;5023642;28;20018;-48
2022/06/03 10:35:45;;;;;;;2.80;1.65;;;25.10;71.90;;;;;;5021452;28;20057;-45
2022/06/03 10:38:10;;;;;;;6.35;1.90;;;25.20;71.10;;;;;;5013796;28;20449;-48
2022/06/03 10:40:39;;;;;;;2.53;1.50;;;25.20;71.30;;;;;;5024310;28;20117;-45
2022/06/03 10:43:06;;;;;;;5.57;2.10;;;25.20;71.20;;;;;;5025848;28;20022;-48
2022/06/03 10:45:36;;;;;;;1.98;1.48;;;25.10;71.00;;;;;;5013573;28;20148;-46
2022/06/03 10:48:24;;;;;;;3.60;1.60;;;25.00;71.70;;;;;;5013478;28;20033;-46
2022/06/03 10:50:49;;;;;;;1.83;1.73;;;24.90;71.60;;;;;;5013809;28;20038;-46
2022/06/03 11:01:53;;;;;;;1.80;1.70;;;25.70;71.30;;;;;;5013356;28;20133;-47
2022/06/03 11:04:29;;;;;;;12.57;4.13;;;25.70;71.10;;;;;;5013273;28;20033;-49
2022/06/03 11:06:56;;;;;;;4.78;1.90;;;25.60;70.80;;;;;;5012789;28;20524;-47
2022/06/03 11:09:23;;;;;;;1.50;1.40;;;25.70;71.10;;;;;;5012902;28;20033;-46
2022/06/03 11:12:01;;;;;;;4.82;1.60;;;25.70;70.90;;;;;;5011397;28;20087;-48
2022/06/03 11:14:38;;;;;;;4.75;1.67;;;25.70;70.80;;;;;;5012687;28;20045;-47
2022/06/03 11:17:15;;;;;;;5.97;1.42;;;25.80;71.10;;;;;;5012422;28;20478;-47
2022/06/03 11:19:44;;;;;;;3.38;1.65;;;25.90;71.70;;;;;;5012668;28;20088;-45
2022/06/03 11:22:18;;;;;;;5.13;2.03;;;26.00;70.80;;;;;;5012501;28;20044;-50
2022/06/03 11:24:52;;;;;;;6.38;1.60;;;26.10;70.90;;;;;;5012328;28;20079;-50
2022/06/03 11:27:23;;;;;;;4.68;1.83;;;25.90;71.60;;;;;;5011543;28;20509;-46
2022/06/03 11:29:50;;;;;;;14.35;1.90;;;26.00;71.60;;;;;;5012421;28;20101;-48
2022/06/03 11:32:17;;;;;;;5.93;3.08;;;26.00;71.50;;;;;;4994293;28;20054;-45
2022/06/03 11:34:57;;;;;;;4.07;1.80;;;26.00;71.00;;;;;;5011995;28;20022;-45
2022/06/03 11:37:40;;;;;;;5.28;2.22;;;25.80;71.80;;;;;;5011704;28;20018;-49
2022/06/03 11:40:15;;;;;;;1.95;1.73;;;25.80;71.40;;;;;;5012136;28;20108;-48
2022/06/03 11:42:50;;;;;;;2.25;2.05;;;25.60;72.00;;;;;;5012137;28;20076;-45
2022/06/03 11:45:21;;;;;;;5.03;2.13;;;25.60;72.40;;;;;;5012125;28;20088;-46
2022/06/03 11:48:13;;;;;;;2.17;1.83;;;25.50;72.50;;;;;;5013369;28;20034;-43
2022/06/03 11:50:39;;;;;;;4.03;1.80;;;25.40;72.60;;;;;;5011539;28;20034;-44
2022/06/03 11:53:04;;;;;;;6.40;2.92;;;25.20;73.00;;;;;;5011965;28;20057;-45
2022/06/03 11:55:32;;;;;;;5.18;1.85;;;25.30;73.20;;;;;;5011741;28;20081;-48
2022/06/03 11:58:13;;;;;;;2.22;1.65;;;25.30;73.50;;;;;;5015777;28;20022;-46
2022/06/03 12:00:48;;;;;;;2.85;1.73;;;25.40;72.60;;;;;;5013409;28;20014;-47
2022/06/03 12:03:43;;;;;;;4.22;2.08;;;25.40;73.20;;;;;;5013380;28;20025;-44
2022/06/03 12:06:22;;;;;;;3.95;2.92;;;25.50;73.40;;;;;;5013317;28;20024;-44
2022/06/03 12:08:58;;;;;;;43.97;30.23;;;25.60;72.90;;;;;;5017794;28;20030;-42
2022/06/03 12:14:25;;;;;;;4.72;1.80;;;25.70;72.60;;;;;;5013758;28;20080;-45
2022/06/03 12:17:13;;;;;;;2.47;1.60;;;25.90;72.30;;;;;;5013159;28;20541;-45
2022/06/03 12:19:53;;;;;;;2.22;2.08;;;26.00;72.20;;;;;;5005489;28;20030;-48
2022/06/03 12:22:33;;;;;;;5.65;1.83;;;26.20;72.90;;;;;;5014938;28;20097;-49
2022/06/03 12:25:06;;;;;;;1.60;1.50;;;26.40;71.60;;;;;;5020517;28;20095;-47
2022/06/03 12:27:38;;;;;;;5.88;1.75;;;26.50;72.10;;;;;;5019936;28;20029;-48
2022/06/03 12:30:06;;;;;;;4.68;1.90;;;26.50;71.80;;;;;;5022272;28;20033;-48
2022/06/03 12:32:35;;;;;;;6.38;2.10;;;26.50;72.00;;;;;;5004231;28;20120;-47
2022/06/03 12:35:42;;;;;;;8.38;2.22;;;26.40;72.10;;;;;;5021965;28;20049;-46
2022/06/03 12:38:19;;;;;;;2.28;1.88;;;26.50;71.60;;;;;;4961077;29;20459;-45
2022/06/03 12:40:47;;;;;;;5.78;2.00;;;26.40;71.70;;;;;;4960213;29;20038;-47
2022/06/03 12:43:29;;;;;;;1.98;1.80;;;26.40;72.00;;;;;;4996323;28;20037;-45
2022/06/03 12:46:09;;;;;;;3.83;1.77;;;26.40;72.20;;;;;;5021444;28;20026;-48
2022/06/03 12:48:43;;;;;;;1.92;1.75;;;26.50;72.30;;;;;;5021506;28;20053;-47
2022/06/03 12:51:28;;;;;;;4.65;1.95;;;26.60;72.70;;;;;;5020781;28;20072;-51
2022/06/03 12:54:05;;;;;;;2.17;1.95;;;26.80;73.30;;;;;;5020232;28;20022;-50
2022/06/03 12:57:05;;;;;;;2.95;1.88;;;26.80;72.00;;;;;;5018091;28;20060;-47
2022/06/03 12:59:47;;;;;;;2.65;2.45;;;27.00;71.70;;;;;;5017594;28;20049;-44
2022/06/03 13:02:21;;;;;;;6.35;2.28;;;27.10;71.90;;;;;;5013744;28;20022;-47
2022/06/03 13:05:09;;;;;;;4.25;1.70;;;27.20;71.10;;;;;;5013692;28;20445;-44
2022/06/03 13:07:59;;;;;;;2.95;1.88;;;27.10;70.80;;;;;;5012340;28;20449;-44
2022/06/03 13:10:27;;;;;;;2.35;1.60;;;27.10;71.10;;;;;;5013685;28;20443;-45
2022/06/03 13:12:55;;;;;;;2.03;1.80;;;27.10;71.00;;;;;;5014569;28;20520;-46
2022/06/03 13:15:20;;;;;;;2.80;1.88;;;27.10;71.10;;;;;;5014535;28;20393;-49
2022/06/03 13:17:59;;;;;;;2.65;1.83;;;27.10;71.80;;;;;;5016423;28;20037;-48
2022/06/03 13:20:57;;;;;;;3.15;1.88;;;27.20;71.50;;;;;;5016486;28;20097;-48
2022/06/03 13:23:29;;;;;;;4.22;2.00;;;27.20;71.90;;;;;;5016596;28;20022;-45
2022/06/03 13:26:15;;;;;;;2.92;1.70;;;27.20;72.20;;;;;;5015076;28;20049;-48
2022/06/03 13:28:43;;;;;;;2.45;1.88;;;27.20;72.70;;;;;;5014707;28;20030;-49
2022/06/03 13:31:13;;;;;;;2.08;1.88;;;27.10;73.70;;;;;;5014517;28;20108;-52
2022/06/03 13:34:02;;;;;;;2.60;2.15;;;27.00;73.20;;;;;;5012948;28;20118;-48
2022/06/03 13:36:33;;;;;;;4.45;1.73;;;27.00;74.00;;;;;;5014383;28;20389;-49
2022/06/03 13:38:59;;;;;;;2.38;2.17;;;26.90;73.90;;;;;;5014112;28;20022;-49
2022/06/03 13:44:41;;;;;;;7.25;2.45;;;26.80;74.60;;;;;;5013930;28;20060;-47
2022/06/03 13:47:13;;;;;;;4.77;1.80;;;26.60;73.60;;;;;;5014198;28;20038;-47
2022/06/03 13:50:05;;;;;;;4.90;1.70;;;26.60;77.30;;;;;;4996502;28;20049;-46
2022/06/03 13:52:34;;;;;;;3.90;1.73;;;26.50;75.40;;;;;;5014020;28;20486;-45
2022/06/03 13:55:26;;;;;;;2.83;1.80;;;26.50;74.90;;;;;;5014053;28;20053;-45
2022/06/03 13:58:01;;;;;;;9.00;3.47;;;26.50;74.60;;;;;;5013772;28;20113;-46
2022/06/03 14:00:54;;;;;;;29.45;22.83;;;26.40;76.00;;;;;;5014291;28;20378;-45
2022/06/03 14:03:24;;;;;;;5.70;4.90;;;26.40;77.10;;;;;;5014237;28;20108;-48
2022/06/03 14:06:02;;;;;;;4.28;1.98;;;26.30;76.90;;;;;;5013991;28;20018;-45
2022/06/03 14:08:33;;;;;;;7.55;2.33;;;26.30;76.00;;;;;;5013666;28;20569;-46
2022/06/03 14:11:04;;;;;;;8.63;2.25;;;26.20;76.60;;;;;;5013863;28;20217;-47
2022/06/03 14:14:08;;;;;;;7.80;2.22;;;26.20;79.70;;;;;;5013980;28;20029;-44
2022/06/03 14:16:48;;;;;;;11.20;2.08;;;26.00;79.30;;;;;;5014207;28;20041;-46
2022/06/03 14:19:38;;;;;;;15.10;2.80;;;25.90;79.80;;;;;;5013489;28;20022;-44
2022/06/03 14:22:18;;;;;;;5.05;2.00;;;25.90;81.10;;;;;;5013371;28;20025;-44
2022/06/03 14:25:15;;;;;;;9.00;2.47;;;25.70;81.80;;;;;;5013242;28;20037;-45
2022/06/03 14:27:50;;;;;;;4.15;1.63;;;25.60;81.90;;;;;;4989880;28;20042;-45
2022/06/03 14:30:25;;;;;;;4.95;2.28;;;25.60;82.40;;;;;;5013441;28;20104;-47